METAR AND TAF INFORMATION
METAR FOR ZWWW
ADDS - METARS form results

(0413 UTC 26 August 2019)
Data provider http://aviationweather.gov/metar/data/
 
METAR text: ZWWW 260400Z 02002MPS 310V120 CAVOK 27/11 Q1017 NOSIG
Conditions at: ZWWW (URUM-QI/DIWOPU , CN) observed 0400 UTC 26 August 2019
Temperature: 27.0°C (81°F)
Dewpoint: 11.0°C (52°F) [RH = 37%]
Pressure (altimeter): 30.03 inches Hg (1017.0 mb)
Winds: from the NNE (20 degrees) at 5 MPH (4 knots; 2.1 m/s)
Visibility: 6 or more miles (10+ km)
Ceiling: ceiling and visibility are OK
Clouds: unknown
Weather: no significant weather observed at this time

METAR text: ZWWW 260330Z 02002MPS 330V080 CAVOK 26/11 Q1017 NOSIG
Conditions at: ZWWW (URUM-QI/DIWOPU , CN) observed 0330 UTC 26 August 2019
Temperature: 26.0°C (79°F)
Dewpoint: 11.0°C (52°F) [RH = 39%]
Pressure (altimeter): 30.03 inches Hg (1017.0 mb)
Winds: from the NNE (20 degrees) at 5 MPH (4 knots; 2.1 m/s)
Visibility: 6 or more miles (10+ km)
Ceiling: ceiling and visibility are OK
Clouds: unknown
Weather: no significant weather observed at this time

Forecast for: ZWWW (URUM-QI/DIWOPU , CN)
Text: TAF ZWWW 260303Z 2606/2706 02004MPS CAVOK TX30/2609Z TN21/2623Z
Forecast period: 0600 to 1300 UTC 26 August 2019
Forecast type: FROM: standard forecast or significant change
Winds: from the NNE (20 degrees) at 9 MPH (8 knots; 4.1 m/s)
Visibility: 6 or more miles 10+ km)
Ceiling: unknown
Clouds: missing
Weather: no significant weather forecast for this period
Text: BECMG 2613/2614 18004MPS
Forecast period: 1300 UTC 26 August 2019 to 0200 UTC 27 August 2019
Forecast type: BECOMING: Conditions expected to become as follows by 1400 UTC 26 August 2019
Winds: from the S (180 degrees) at 9 MPH (8 knots; 4.1 m/s)
Visibility: 6 or more miles 10+ km)
Ceiling: unknown
Clouds: missing
Weather: no significant weather forecast for this period
Text: BECMG 2702/2703 36004MPS
Forecast period: 0200 to 0600 UTC 27 August 2019
Forecast type: BECOMING: Conditions expected to become as follows by 0300 UTC 27 August 2019
Winds: from the N (360 degrees) at 9 MPH (8 knots; 4.1 m/s)
Visibility: 6 or more miles 10+ km)
Ceiling: unknown
Clouds: missing
Weather: no significant weather forecast for this period

 AIRPORT MAP

 RUNWAY INFORMATION

 AIRPORT FREQUENCIES
Type ATIS Name ATIS Frequency 126.7 MHZ
Type GND Name GND Frequency 121.65 MHZ
Type TWR Name TWR Frequency 118.1 MHZ

 AIRPORT NEAR NAVIGATION AIDS
Type NDB Name Fukang Frequency 369 KHZ
Type VOR-DME Name Fukang Frequency 116300 KHZ
Type VOR-DME Name Urumqi Frequency 115700 KHZ



2018 Air Astana Virtual Airline